createdAt,value
2022-08-02T00:04:05.101Z,25.72
2022-08-02T00:09:08.323Z,24.17
2022-08-02T00:14:11.147Z,23.13
2022-08-02T00:19:14.977Z,22.35
2022-08-02T00:24:28.552Z,23.23
2022-08-02T00:29:33.369Z,24.89
2022-08-02T00:34:38.001Z,25.63
2022-08-02T00:39:43.125Z,25.12
2022-08-02T00:44:46.255Z,23.62
2022-08-02T00:49:49.965Z,22.67
2022-08-02T00:54:55.932Z,22.91
2022-08-02T00:59:58.949Z,24.67
2022-08-02T01:05:01.901Z,25.49
2022-08-02T01:10:06.602Z,25.50
2022-08-02T01:15:11.695Z,24.03
2022-08-02T01:21:08.667Z,22.93
2022-08-02T01:26:43.432Z,23.38
2022-08-02T01:32:11.920Z,25.08
2022-08-02T01:37:34.207Z,25.75
2022-08-02T01:42:48.803Z,25.41
2022-08-02T01:47:54.081Z,23.76
2022-08-02T01:53:03.418Z,22.73
2022-08-02T01:58:09.134Z,22.91
2022-08-02T02:03:22.672Z,24.64
2022-08-02T02:08:36.877Z,25.48
2022-08-02T02:13:42.718Z,25.06
2022-08-02T02:18:49.240Z,23.52
2022-08-02T02:23:52.346Z,22.53
2022-08-02T02:28:56.704Z,22.73
2022-08-02T02:34:14.996Z,24.40
2022-08-02T02:39:22.988Z,25.31
2022-08-02T02:44:28.457Z,25.01
2022-08-02T02:49:36.862Z,23.46
2022-08-02T02:54:40.485Z,22.44
2022-08-02T02:59:49.578Z,22.65
2022-08-02T03:04:57.976Z,24.42
2022-08-02T03:10:04.772Z,25.26
2022-08-02T03:15:12.653Z,25.07
2022-08-02T03:20:19.952Z,23.49
2022-08-02T03:25:22.971Z,22.45
2022-08-02T03:30:27.873Z,22.69
2022-08-02T03:35:30.980Z,24.45
2022-08-02T03:40:35.251Z,25.33
2022-08-02T03:45:45.582Z,25.20
2022-08-02T03:50:51.575Z,23.66
2022-08-02T03:55:57.328Z,22.64
2022-08-02T04:01:03.457Z,22.91
2022-08-02T04:06:09.532Z,24.73
2022-08-02T04:11:30.953Z,25.57
2022-08-02T04:16:44.835Z,25.41
2022-08-02T04:21:52.570Z,23.85
2022-08-02T04:27:19.119Z,22.87
2022-08-02T04:32:23.261Z,23.27
2022-08-02T04:37:27.423Z,25.02
2022-08-02T04:42:30.515Z,25.75
2022-08-02T04:47:54.465Z,26.15
2022-08-02T04:52:56.422Z,25.01
2022-08-02T04:58:03.506Z,23.63
2022-08-02T05:03:07.456Z,23.17
2022-08-02T05:08:10.451Z,24.84
2022-08-02T05:13:13.267Z,26.04
2022-08-02T05:18:16.750Z,26.45
2022-08-02T05:23:20.799Z,25.26
2022-08-02T05:28:23.844Z,24.03
2022-08-02T05:33:29.674Z,24.09
2022-08-02T05:38:32.729Z,25.73
2022-08-02T05:43:40.332Z,26.59
2022-08-02T05:48:45.119Z,25.96
2022-08-02T05:53:59.255Z,24.49
2022-08-02T05:59:13.904Z,23.58
2022-08-02T06:04:26.536Z,22.92
2022-08-02T06:09:30.040Z,23.37
2022-08-02T06:14:34.412Z,25.32
2022-08-02T06:19:51.740Z,25.65
2022-08-02T06:24:59.276Z,24.18
2022-08-02T06:30:03.025Z,23.26
2022-08-02T06:35:06.926Z,22.72
2022-08-02T06:40:21.955Z,23.25
2022-08-02T06:45:27.344Z,25.34
2022-08-02T06:50:31.982Z,25.77
2022-08-02T06:55:36.800Z,24.43
2022-08-02T07:00:47.493Z,23.56
2022-08-02T07:05:54.400Z,23.05
2022-08-02T07:10:58.587Z,22.66
2022-08-02T07:16:05.465Z,23.38
2022-08-02T07:21:08.670Z,25.59
2022-08-02T07:26:12.461Z,26.19
2022-08-02T07:31:15.457Z,25.17
2022-08-02T07:36:22.602Z,24.56
2022-08-02T07:41:26.097Z,24.24
2022-08-02T07:46:33.511Z,23.94
2022-08-02T07:51:36.840Z,23.65
2022-08-02T07:56:42.782Z,23.36
2022-08-02T08:01:46.174Z,23.11
2022-08-02T08:06:52.187Z,22.88
2022-08-02T08:11:55.225Z,22.66
2022-08-02T08:16:58.285Z,23.40
2022-08-02T08:22:02.047Z,25.59
2022-08-02T08:27:05.789Z,26.13
2022-08-02T08:32:16.249Z,24.99
2022-08-02T08:37:21.176Z,24.27
2022-08-02T08:42:24.164Z,23.90
2022-08-02T08:47:35.741Z,23.66
2022-08-02T08:53:15.329Z,24.42
2022-08-02T08:58:19.481Z,26.66
2022-08-02T09:03:22.475Z,26.24
2022-08-02T09:08:26.010Z,25.21
2022-08-02T09:13:45.230Z,24.63
2022-08-02T09:18:50.233Z,24.24
2022-08-02T09:23:53.249Z,23.95
2022-08-02T09:29:02.742Z,23.73
2022-08-02T09:34:06.260Z,23.57
2022-08-02T09:39:12.947Z,23.48
2022-08-02T09:44:18.625Z,24.52
2022-08-02T09:49:22.066Z,26.79
2022-08-02T09:54:29.103Z,26.61
2022-08-02T09:59:32.243Z,25.70
2022-08-02T10:04:52.901Z,25.26
2022-08-02T10:09:57.563Z,25.00
2022-08-02T10:15:00.635Z,24.76
2022-08-02T10:20:05.145Z,24.52
2022-08-02T10:25:09.980Z,24.33
2022-08-02T10:30:13.422Z,24.19
2022-08-02T10:35:25.621Z,24.15
2022-08-02T10:40:55.679Z,24.12
2022-08-02T10:46:35.894Z,24.09
2022-08-02T10:52:03.340Z,24.08
2022-08-02T10:57:37.038Z,24.05
2022-08-02T11:02:47.258Z,23.98
2022-08-02T11:07:56.699Z,23.91
2022-08-02T11:13:15.054Z,23.86
2022-08-02T11:18:23.889Z,23.83
2022-08-02T11:23:44.812Z,23.79
2022-08-02T11:28:50.992Z,23.74
2022-08-02T11:33:54.606Z,23.67
2022-08-02T11:39:12.661Z,23.59
2022-08-02T11:44:20.431Z,23.54
2022-08-02T11:49:27.427Z,23.52
2022-08-02T11:54:35.553Z,23.50
2022-08-02T11:59:43.918Z,23.55
2022-08-02T12:04:59.020Z,23.59
2022-08-02T12:10:16.889Z,24.67
2022-08-02T12:15:44.793Z,27.07
2022-08-02T12:20:48.006Z,27.09
2022-08-02T12:26:20.875Z,26.15
2022-08-02T12:31:56.445Z,25.73
2022-08-02T12:37:08.521Z,25.55
2022-08-02T12:42:15.480Z,25.42
2022-08-02T12:47:21.811Z,25.30
2022-08-02T12:52:25.002Z,25.24
2022-08-02T12:57:27.969Z,25.22
2022-08-02T13:02:34.960Z,25.20
2022-08-02T13:07:37.970Z,25.16
2022-08-02T13:12:41.514Z,25.16
2022-08-02T13:17:45.028Z,25.13
2022-08-02T13:22:52.752Z,25.08
2022-08-02T13:27:56.797Z,25.09
2022-08-02T13:33:01.245Z,25.11
2022-08-02T13:38:06.736Z,25.13
2022-08-02T13:43:09.758Z,25.14
2022-08-02T13:48:17.138Z,25.14
2022-08-02T13:53:21.577Z,25.12
2022-08-02T13:58:24.721Z,25.07
2022-08-02T14:04:08.001Z,25.01
2022-08-02T14:08:50.790Z,24.94
2022-08-02T14:13:53.761Z,24.86
2022-08-02T14:18:57.609Z,24.78
2022-08-02T14:24:00.620Z,24.71
2022-08-02T14:29:04.736Z,24.64
2022-08-02T14:34:11.365Z,24.56
2022-08-02T14:39:14.769Z,24.51
2022-08-02T14:44:17.789Z,24.43
2022-08-02T14:49:24.425Z,24.38
2022-08-02T14:54:32.019Z,24.31
2022-08-02T14:59:35.162Z,24.26
2022-08-02T15:04:43.236Z,24.22
2022-08-02T15:09:46.712Z,24.16
2022-08-02T15:14:49.751Z,24.12
2022-08-02T15:19:57.507Z,24.08
2022-08-02T15:25:03.580Z,24.04
2022-08-02T15:30:07.087Z,24.03
2022-08-02T15:35:10.100Z,25.60
2022-08-02T15:40:13.351Z,26.86
2022-08-02T15:45:16.711Z,25.91
2022-08-02T15:50:21.167Z,25.30
2022-08-02T15:55:24.186Z,24.90
2022-08-02T16:00:30.056Z,24.63
2022-08-02T16:05:33.212Z,24.41
2022-08-02T16:10:36.392Z,24.25
2022-08-02T16:15:39.403Z,24.11
2022-08-02T16:20:42.417Z,23.99
2022-08-02T16:25:45.414Z,25.24
2022-08-02T16:30:59.433Z,27.18
2022-08-02T16:36:13.858Z,27.43
2022-08-02T16:41:16.994Z,26.22
2022-08-02T16:46:20.082Z,25.52
2022-08-02T16:51:23.136Z,25.05
2022-08-02T16:56:26.704Z,24.68
2022-08-02T17:02:10.886Z,24.41
2022-08-02T17:06:52.886Z,24.18
2022-08-02T17:11:55.865Z,24.01
2022-08-02T17:16:58.858Z,23.86
2022-08-02T17:22:01.854Z,23.73
2022-08-02T17:27:05.132Z,23.58
2022-08-02T17:32:11.610Z,24.35
2022-08-02T17:37:14.906Z,26.47
2022-08-02T17:42:23.616Z,26.92
2022-08-02T17:47:30.761Z,25.74
2022-08-02T17:52:53.403Z,24.97
2022-08-02T18:03:19.635Z,24.11
2022-08-02T18:08:25.953Z,23.78
2022-08-02T18:13:33.112Z,24.32
2022-08-02T18:18:39.085Z,26.34
2022-08-02T18:23:58.872Z,27.17
2022-08-02T18:29:05.133Z,26.09
2022-08-02T18:34:08.731Z,25.07
2022-08-02T18:39:11.785Z,24.41
2022-08-02T18:44:15.891Z,23.91
2022-08-02T18:49:19.797Z,24.31
2022-08-02T18:54:26.774Z,26.20
2022-08-02T18:59:37.545Z,26.94
2022-08-02T19:04:43.852Z,25.77
2022-08-02T19:09:50.106Z,24.69
2022-08-02T19:14:53.586Z,24.03
2022-08-02T19:19:59.838Z,23.51
2022-08-02T19:25:02.971Z,23.98
2022-08-02T19:30:07.551Z,25.91
2022-08-02T19:35:19.782Z,26.86
2022-08-02T19:40:33.355Z,26.25
2022-08-02T19:45:50.089Z,24.93
2022-08-02T19:51:00.640Z,24.12
2022-08-02T19:56:05.024Z,23.54
2022-08-02T20:01:09.654Z,23.97
2022-08-02T20:06:29.327Z,25.93
2022-08-02T20:11:35.057Z,26.64
2022-08-02T20:16:38.405Z,25.50
2022-08-02T20:21:52.917Z,24.38
2022-08-02T20:27:01.533Z,23.67
2022-08-02T20:32:06.501Z,23.96
2022-08-02T20:38:00.171Z,25.81
2022-08-02T20:42:34.858Z,26.62
2022-08-02T20:47:39.611Z,25.50
2022-08-02T20:52:47.816Z,24.29
2022-08-02T20:58:00.381Z,23.55
2022-08-02T21:03:06.283Z,23.95
2022-08-02T21:08:14.859Z,25.85
2022-08-02T21:13:22.904Z,26.44
2022-08-02T21:18:35.616Z,25.08
2022-08-02T21:23:44.922Z,24.00
2022-08-02T21:28:58.167Z,23.29
2022-08-02T21:34:21.621Z,23.69
2022-08-02T21:39:25.774Z,25.62
2022-08-02T21:44:29.564Z,26.40
2022-08-02T21:50:08.921Z,25.35
2022-08-02T21:54:56.870Z,24.06
2022-08-02T22:00:01.606Z,23.28
2022-08-02T22:05:06.212Z,23.55
2022-08-02T22:10:17.270Z,25.39
2022-08-02T22:15:25.676Z,26.18
2022-08-02T22:20:39.149Z,25.64
2022-08-02T22:25:44.702Z,24.26
2022-08-02T22:30:50.567Z,23.42
2022-08-02T22:35:57.245Z,22.79
2022-08-02T22:41:00.423Z,23.20
2022-08-02T22:46:03.943Z,25.04
2022-08-02T22:51:07.104Z,25.93
2022-08-02T22:56:12.057Z,25.87
2022-08-02T22:58:51.032Z,24.51
2022-08-02T23:01:15.273Z,24.39
2022-08-02T23:06:22.699Z,23.42
2022-08-02T23:11:26.024Z,22.75
2022-08-02T23:16:54.988Z,23.12
2022-08-02T23:22:01.567Z,25.00
2022-08-02T23:27:06.159Z,25.75
2022-08-02T23:32:09.397Z,24.64
2022-08-02T23:37:12.528Z,23.42
2022-08-02T23:42:18.515Z,22.66
2022-08-02T23:47:22.529Z,22.95
2022-08-02T23:52:25.603Z,24.73
2022-08-02T23:57:30.657Z,25.59
